sensor_id;sensor_type;location;lat;lon;timestamp;P1;durP1;ratioP1;P2;durP2;ratioP2
69161;SDS011;56269;51.738;21.652;2023-12-20T00:01:16;6.07;;;2.38;;
69161;SDS011;56269;51.738;21.652;2023-12-20T00:03:43;4.82;;;1.85;;
69161;SDS011;56269;51.738;21.652;2023-12-20T00:06:10;7.23;;;2.70;;
69161;SDS011;56269;51.738;21.652;2023-12-20T00:08:37;9.17;;;2.53;;
69161;SDS011;56269;51.738;21.652;2023-12-20T00:11:03;9.23;;;3.53;;
69161;SDS011;56269;51.738;21.652;2023-12-20T00:13:29;8.18;;;3.10;;
69161;SDS011;56269;51.738;21.652;2023-12-20T00:15:55;6.45;;;2.95;;
69161;SDS011;56269;51.738;21.652;2023-12-20T00:18:21;11.00;;;4.57;;
69161;SDS011;56269;51.738;21.652;2023-12-20T00:20:47;11.10;;;4.15;;
69161;SDS011;56269;51.738;21.652;2023-12-20T00:23:14;9.80;;;4.35;;
69161;SDS011;56269;51.738;21.652;2023-12-20T00:25:40;8.40;;;2.97;;
69161;SDS011;56269;51.738;21.652;2023-12-20T00:28:06;8.73;;;3.65;;
69161;SDS011;56269;51.738;21.652;2023-12-20T00:30:32;8.67;;;3.17;;
69161;SDS011;56269;51.738;21.652;2023-12-20T00:32:59;7.50;;;2.95;;
69161;SDS011;56269;51.738;21.652;2023-12-20T00:35:26;7.28;;;2.90;;
69161;SDS011;56269;51.738;21.652;2023-12-20T00:37:53;8.60;;;3.67;;
69161;SDS011;56269;51.738;21.652;2023-12-20T00:40:19;8.82;;;2.83;;
69161;SDS011;56269;51.738;21.652;2023-12-20T00:42:46;9.17;;;3.90;;
69161;SDS011;56269;51.738;21.652;2023-12-20T00:45:12;8.52;;;3.17;;
69161;SDS011;56269;51.738;21.652;2023-12-20T00:47:40;7.07;;;3.13;;
69161;SDS011;56269;51.738;21.652;2023-12-20T00:50:06;5.40;;;2.28;;
69161;SDS011;56269;51.738;21.652;2023-12-20T00:52:33;8.82;;;3.50;;
69161;SDS011;56269;51.738;21.652;2023-12-20T00:54:59;9.17;;;3.30;;
69161;SDS011;56269;51.738;21.652;2023-12-20T00:57:25;8.82;;;4.30;;
69161;SDS011;56269;51.738;21.652;2023-12-20T00:59:51;8.48;;;3.03;;
69161;SDS011;56269;51.738;21.652;2023-12-20T01:02:17;10.77;;;3.35;;
69161;SDS011;56269;51.738;21.652;2023-12-20T01:04:44;7.03;;;2.83;;
69161;SDS011;56269;51.738;21.652;2023-12-20T01:07:11;8.98;;;2.58;;
69161;SDS011;56269;51.738;21.652;2023-12-20T01:09:38;10.88;;;3.30;;
69161;SDS011;56269;51.738;21.652;2023-12-20T01:12:04;9.38;;;3.85;;
69161;SDS011;56269;51.738;21.652;2023-12-20T01:14:30;7.65;;;3.38;;
69161;SDS011;56269;51.738;21.652;2023-12-20T01:16:56;7.63;;;2.70;;
69161;SDS011;56269;51.738;21.652;2023-12-20T01:19:22;9.75;;;3.80;;
69161;SDS011;56269;51.738;21.652;2023-12-20T01:21:50;11.20;;;4.25;;
69161;SDS011;56269;51.738;21.652;2023-12-20T01:24:16;9.23;;;3.90;;
69161;SDS011;56269;51.738;21.652;2023-12-20T01:26:42;7.80;;;3.70;;
69161;SDS011;56269;51.738;21.652;2023-12-20T01:29:09;9.40;;;3.65;;
69161;SDS011;56269;51.738;21.652;2023-12-20T01:31:35;6.68;;;2.80;;
69161;SDS011;56269;51.738;21.652;2023-12-20T01:34:01;5.00;;;2.35;;
69161;SDS011;56269;51.738;21.652;2023-12-20T01:36:28;9.73;;;4.10;;
69161;SDS011;56269;51.738;21.652;2023-12-20T01:38:54;9.47;;;3.93;;
69161;SDS011;56269;51.738;21.652;2023-12-20T01:41:20;10.20;;;3.72;;
69161;SDS011;56269;51.738;21.652;2023-12-20T01:43:47;10.02;;;4.10;;
69161;SDS011;56269;51.738;21.652;2023-12-20T01:46:13;8.88;;;3.35;;
69161;SDS011;56269;51.738;21.652;2023-12-20T01:48:40;7.97;;;3.20;;
69161;SDS011;56269;51.738;21.652;2023-12-20T01:51:07;9.03;;;3.33;;
69161;SDS011;56269;51.738;21.652;2023-12-20T01:53:33;6.43;;;2.40;;
69161;SDS011;56269;51.738;21.652;2023-12-20T01:56:00;10.10;;;3.85;;
69161;SDS011;56269;51.738;21.652;2023-12-20T01:58:27;12.02;;;3.58;;
69161;SDS011;56269;51.738;21.652;2023-12-20T02:00:53;6.82;;;2.63;;
69161;SDS011;56269;51.738;21.652;2023-12-20T02:03:20;6.80;;;3.03;;
69161;SDS011;56269;51.738;21.652;2023-12-20T02:05:47;10.85;;;3.92;;
69161;SDS011;56269;51.738;21.652;2023-12-20T02:08:13;8.55;;;3.85;;
69161;SDS011;56269;51.738;21.652;2023-12-20T02:10:40;10.05;;;3.53;;
69161;SDS011;56269;51.738;21.652;2023-12-20T02:13:08;10.30;;;3.67;;
69161;SDS011;56269;51.738;21.652;2023-12-20T02:15:34;7.63;;;3.53;;
69161;SDS011;56269;51.738;21.652;2023-12-20T02:18:02;9.20;;;2.67;;
69161;SDS011;56269;51.738;21.652;2023-12-20T02:20:30;8.23;;;3.67;;
69161;SDS011;56269;51.738;21.652;2023-12-20T02:22:56;8.50;;;3.70;;
69161;SDS011;56269;51.738;21.652;2023-12-20T02:25:22;8.48;;;3.72;;
69161;SDS011;56269;51.738;21.652;2023-12-20T02:27:48;7.77;;;2.23;;
69161;SDS011;56269;51.738;21.652;2023-12-20T02:30:15;7.60;;;3.65;;
69161;SDS011;56269;51.738;21.652;2023-12-20T02:32:41;8.00;;;2.65;;
69161;SDS011;56269;51.738;21.652;2023-12-20T02:35:08;6.65;;;2.65;;
69161;SDS011;56269;51.738;21.652;2023-12-20T02:37:33;4.60;;;2.53;;
69161;SDS011;56269;51.738;21.652;2023-12-20T02:40:00;8.85;;;4.15;;
69161;SDS011;56269;51.738;21.652;2023-12-20T02:42:26;8.05;;;3.42;;
69161;SDS011;56269;51.738;21.652;2023-12-20T02:44:52;10.70;;;3.95;;
69161;SDS011;56269;51.738;21.652;2023-12-20T02:47:20;9.30;;;4.00;;
69161;SDS011;56269;51.738;21.652;2023-12-20T02:49:47;6.03;;;2.58;;
69161;SDS011;56269;51.738;21.652;2023-12-20T02:52:13;7.82;;;2.92;;
69161;SDS011;56269;51.738;21.652;2023-12-20T02:54:39;9.85;;;3.78;;
69161;SDS011;56269;51.738;21.652;2023-12-20T02:57:05;6.07;;;2.23;;
69161;SDS011;56269;51.738;21.652;2023-12-20T02:59:32;6.37;;;2.43;;
69161;SDS011;56269;51.738;21.652;2023-12-20T03:01:58;9.00;;;3.22;;
69161;SDS011;56269;51.738;21.652;2023-12-20T03:04:24;7.30;;;3.28;;
69161;SDS011;56269;51.738;21.652;2023-12-20T03:06:50;7.55;;;2.85;;
69161;SDS011;56269;51.738;21.652;2023-12-20T03:09:17;10.20;;;3.83;;
69161;SDS011;56269;51.738;21.652;2023-12-20T03:11:43;7.80;;;3.27;;
69161;SDS011;56269;51.738;21.652;2023-12-20T03:14:09;7.78;;;3.00;;
69161;SDS011;56269;51.738;21.652;2023-12-20T03:16:35;6.35;;;2.70;;
69161;SDS011;56269;51.738;21.652;2023-12-20T03:19:01;6.47;;;2.83;;
69161;SDS011;56269;51.738;21.652;2023-12-20T03:21:28;7.73;;;2.73;;
69161;SDS011;56269;51.738;21.652;2023-12-20T03:23:54;9.07;;;3.25;;
69161;SDS011;56269;51.738;21.652;2023-12-20T03:26:20;9.18;;;4.30;;
69161;SDS011;56269;51.738;21.652;2023-12-20T03:28:48;7.97;;;3.55;;
69161;SDS011;56269;51.738;21.652;2023-12-20T03:31:14;8.40;;;3.73;;
69161;SDS011;56269;51.738;21.652;2023-12-20T03:33:40;7.43;;;3.13;;
69161;SDS011;56269;51.738;21.652;2023-12-20T03:36:08;6.20;;;3.08;;
69161;SDS011;56269;51.738;21.652;2023-12-20T03:38:34;6.68;;;2.58;;
69161;SDS011;56269;51.738;21.652;2023-12-20T03:41:00;10.27;;;3.13;;
69161;SDS011;56269;51.738;21.652;2023-12-20T03:43:26;6.63;;;2.83;;
69161;SDS011;56269;51.738;21.652;2023-12-20T03:45:52;5.47;;;2.40;;
69161;SDS011;56269;51.738;21.652;2023-12-20T03:48:18;7.03;;;2.97;;
69161;SDS011;56269;51.738;21.652;2023-12-20T03:50:44;6.72;;;2.63;;
69161;SDS011;56269;51.738;21.652;2023-12-20T03:53:11;5.33;;;1.63;;
69161;SDS011;56269;51.738;21.652;2023-12-20T03:55:37;7.30;;;2.92;;
69161;SDS011;56269;51.738;21.652;2023-12-20T03:58:03;5.40;;;2.33;;
69161;SDS011;56269;51.738;21.652;2023-12-20T04:00:29;8.80;;;2.92;;
69161;SDS011;56269;51.738;21.652;2023-12-20T04:02:55;11.90;;;3.13;;
69161;SDS011;56269;51.738;21.652;2023-12-20T04:05:21;5.67;;;2.23;;
69161;SDS011;56269;51.738;21.652;2023-12-20T04:07:47;4.97;;;2.17;;
69161;SDS011;56269;51.738;21.652;2023-12-20T04:10:15;4.88;;;1.55;;
69161;SDS011;56269;51.738;21.652;2023-12-20T04:12:42;8.32;;;3.38;;
69161;SDS011;56269;51.738;21.652;2023-12-20T04:15:08;3.60;;;1.60;;
69161;SDS011;56269;51.738;21.652;2023-12-20T04:17:35;7.15;;;2.33;;
69161;SDS011;56269;51.738;21.652;2023-12-20T04:20:02;7.40;;;2.95;;
69161;SDS011;56269;51.738;21.652;2023-12-20T04:22:28;7.75;;;3.47;;
69161;SDS011;56269;51.738;21.652;2023-12-20T04:24:54;3.35;;;1.65;;
69161;SDS011;56269;51.738;21.652;2023-12-20T04:27:20;7.63;;;3.33;;
69161;SDS011;56269;51.738;21.652;2023-12-20T04:29:46;3.47;;;1.48;;
69161;SDS011;56269;51.738;21.652;2023-12-20T04:32:13;6.43;;;2.10;;
69161;SDS011;56269;51.738;21.652;2023-12-20T04:34:39;3.80;;;1.95;;
69161;SDS011;56269;51.738;21.652;2023-12-20T04:37:05;7.63;;;2.33;;
69161;SDS011;56269;51.738;21.652;2023-12-20T04:39:31;7.13;;;2.83;;
69161;SDS011;56269;51.738;21.652;2023-12-20T04:41:57;4.30;;;1.75;;
69161;SDS011;56269;51.738;21.652;2023-12-20T04:44:23;5.32;;;2.13;;
69161;SDS011;56269;51.738;21.652;2023-12-20T04:46:49;10.10;;;4.07;;
69161;SDS011;56269;51.738;21.652;2023-12-20T04:49:15;4.75;;;1.98;;
69161;SDS011;56269;51.738;21.652;2023-12-20T04:51:41;7.15;;;2.67;;
69161;SDS011;56269;51.738;21.652;2023-12-20T04:54:07;7.47;;;3.45;;
69161;SDS011;56269;51.738;21.652;2023-12-20T04:56:35;5.17;;;2.33;;
69161;SDS011;56269;51.738;21.652;2023-12-20T04:59:01;5.30;;;1.65;;
69161;SDS011;56269;51.738;21.652;2023-12-20T05:01:27;6.25;;;3.10;;
69161;SDS011;56269;51.738;21.652;2023-12-20T05:03:53;6.88;;;2.95;;
69161;SDS011;56269;51.738;21.652;2023-12-20T05:06:19;4.10;;;1.63;;
69161;SDS011;56269;51.738;21.652;2023-12-20T05:08:45;6.65;;;2.78;;
69161;SDS011;56269;51.738;21.652;2023-12-20T05:11:12;3.55;;;1.38;;
69161;SDS011;56269;51.738;21.652;2023-12-20T05:13:39;5.82;;;2.10;;
69161;SDS011;56269;51.738;21.652;2023-12-20T05:16:06;5.63;;;2.15;;
69161;SDS011;56269;51.738;21.652;2023-12-20T05:18:32;4.10;;;1.83;;
69161;SDS011;56269;51.738;21.652;2023-12-20T05:20:58;6.00;;;2.50;;
69161;SDS011;56269;51.738;21.652;2023-12-20T05:23:24;6.90;;;2.58;;
69161;SDS011;56269;51.738;21.652;2023-12-20T05:25:50;6.10;;;2.22;;
69161;SDS011;56269;51.738;21.652;2023-12-20T05:28:16;8.60;;;2.80;;
69161;SDS011;56269;51.738;21.652;2023-12-20T05:30:42;6.07;;;2.23;;
69161;SDS011;56269;51.738;21.652;2023-12-20T05:33:09;8.07;;;3.00;;
69161;SDS011;56269;51.738;21.652;2023-12-20T05:35:35;6.75;;;2.63;;
69161;SDS011;56269;51.738;21.652;2023-12-20T05:38:01;6.22;;;2.33;;
69161;SDS011;56269;51.738;21.652;2023-12-20T05:40:27;6.45;;;2.58;;
69161;SDS011;56269;51.738;21.652;2023-12-20T05:42:54;7.60;;;2.50;;
69161;SDS011;56269;51.738;21.652;2023-12-20T05:45:20;6.70;;;2.92;;
69161;SDS011;56269;51.738;21.652;2023-12-20T05:47:46;9.45;;;3.25;;
69161;SDS011;56269;51.738;21.652;2023-12-20T05:50:12;7.07;;;2.70;;
69161;SDS011;56269;51.738;21.652;2023-12-20T05:52:38;6.57;;;2.60;;
69161;SDS011;56269;51.738;21.652;2023-12-20T05:55:05;5.65;;;2.55;;
69161;SDS011;56269;51.738;21.652;2023-12-20T05:57:32;8.05;;;3.10;;
69161;SDS011;56269;51.738;21.652;2023-12-20T05:59:58;6.32;;;2.35;;
69161;SDS011;56269;51.738;21.652;2023-12-20T06:02:24;7.35;;;2.83;;
69161;SDS011;56269;51.738;21.652;2023-12-20T06:04:50;6.50;;;2.40;;
69161;SDS011;56269;51.738;21.652;2023-12-20T06:07:17;11.35;;;3.17;;
69161;SDS011;56269;51.738;21.652;2023-12-20T06:09:43;5.38;;;2.17;;
69161;SDS011;56269;51.738;21.652;2023-12-20T06:12:09;5.25;;;2.08;;
69161;SDS011;56269;51.738;21.652;2023-12-20T06:14:35;6.45;;;2.95;;
69161;SDS011;56269;51.738;21.652;2023-12-20T06:17:02;7.87;;;2.90;;
69161;SDS011;56269;51.738;21.652;2023-12-20T06:19:28;9.05;;;3.40;;
69161;SDS011;56269;51.738;21.652;2023-12-20T06:21:54;5.95;;;2.50;;
69161;SDS011;56269;51.738;21.652;2023-12-20T06:24:20;6.43;;;2.53;;
69161;SDS011;56269;51.738;21.652;2023-12-20T06:26:47;6.50;;;2.60;;
69161;SDS011;56269;51.738;21.652;2023-12-20T06:29:13;5.70;;;2.35;;
69161;SDS011;56269;51.738;21.652;2023-12-20T06:31:39;6.43;;;2.10;;
69161;SDS011;56269;51.738;21.652;2023-12-20T06:34:05;7.32;;;3.15;;
69161;SDS011;56269;51.738;21.652;2023-12-20T06:36:32;5.28;;;2.05;;
69161;SDS011;56269;51.738;21.652;2023-12-20T06:38:57;4.37;;;1.97;;
69161;SDS011;56269;51.738;21.652;2023-12-20T06:41:24;7.47;;;2.80;;
69161;SDS011;56269;51.738;21.652;2023-12-20T06:43:50;5.85;;;2.60;;
69161;SDS011;56269;51.738;21.652;2023-12-20T06:46:22;5.35;;;2.13;;
69161;SDS011;56269;51.738;21.652;2023-12-20T06:48:48;7.37;;;3.13;;
69161;SDS011;56269;51.738;21.652;2023-12-20T06:51:15;5.50;;;2.13;;
69161;SDS011;56269;51.738;21.652;2023-12-20T06:53:42;8.25;;;3.35;;
69161;SDS011;56269;51.738;21.652;2023-12-20T06:56:09;6.55;;;2.53;;
69161;SDS011;56269;51.738;21.652;2023-12-20T06:58:42;6.05;;;2.15;;
69161;SDS011;56269;51.738;21.652;2023-12-20T07:01:12;7.30;;;2.30;;
69161;SDS011;56269;51.738;21.652;2023-12-20T07:03:38;5.20;;;2.20;;
69161;SDS011;56269;51.738;21.652;2023-12-20T07:06:06;7.40;;;3.63;;
69161;SDS011;56269;51.738;21.652;2023-12-20T07:08:33;7.78;;;2.45;;
69161;SDS011;56269;51.738;21.652;2023-12-20T07:11:00;6.65;;;2.88;;
69161;SDS011;56269;51.738;21.652;2023-12-20T07:13:26;6.63;;;2.60;;
69161;SDS011;56269;51.738;21.652;2023-12-20T07:15:52;6.78;;;2.50;;
69161;SDS011;56269;51.738;21.652;2023-12-20T07:18:18;10.57;;;2.90;;
69161;SDS011;56269;51.738;21.652;2023-12-20T07:20:45;4.78;;;2.03;;
69161;SDS011;56269;51.738;21.652;2023-12-20T07:23:13;6.57;;;2.40;;
69161;SDS011;56269;51.738;21.652;2023-12-20T07:25:39;7.73;;;2.80;;
69161;SDS011;56269;51.738;21.652;2023-12-20T07:28:05;7.38;;;2.47;;
69161;SDS011;56269;51.738;21.652;2023-12-20T07:30:31;7.50;;;2.60;;
69161;SDS011;56269;51.738;21.652;2023-12-20T07:32:57;5.05;;;2.10;;
69161;SDS011;56269;51.738;21.652;2023-12-20T07:35:24;6.63;;;2.40;;
69161;SDS011;56269;51.738;21.652;2023-12-20T07:37:50;8.67;;;2.70;;
69161;SDS011;56269;51.738;21.652;2023-12-20T07:40:17;6.45;;;2.40;;
69161;SDS011;56269;51.738;21.652;2023-12-20T07:42:43;5.70;;;2.25;;
69161;SDS011;56269;51.738;21.652;2023-12-20T07:45:09;7.25;;;3.90;;
69161;SDS011;56269;51.738;21.652;2023-12-20T07:47:36;7.63;;;3.15;;
69161;SDS011;56269;51.738;21.652;2023-12-20T07:50:02;9.13;;;3.17;;
69161;SDS011;56269;51.738;21.652;2023-12-20T07:52:29;5.68;;;2.22;;
69161;SDS011;56269;51.738;21.652;2023-12-20T07:54:55;7.22;;;3.15;;
69161;SDS011;56269;51.738;21.652;2023-12-20T07:57:23;5.65;;;2.05;;
69161;SDS011;56269;51.738;21.652;2023-12-20T07:59:49;4.13;;;1.60;;
69161;SDS011;56269;51.738;21.652;2023-12-20T08:02:16;3.67;;;1.67;;
69161;SDS011;56269;51.738;21.652;2023-12-20T08:04:42;6.25;;;1.77;;
69161;SDS011;56269;51.738;21.652;2023-12-20T08:07:09;4.10;;;1.60;;
69161;SDS011;56269;51.738;21.652;2023-12-20T08:09:35;6.25;;;2.67;;
69161;SDS011;56269;51.738;21.652;2023-12-20T08:12:02;5.80;;;2.22;;
69161;SDS011;56269;51.738;21.652;2023-12-20T08:14:29;5.57;;;2.27;;
69161;SDS011;56269;51.738;21.652;2023-12-20T08:16:55;6.13;;;2.25;;
69161;SDS011;56269;51.738;21.652;2023-12-20T08:19:21;6.07;;;2.13;;
69161;SDS011;56269;51.738;21.652;2023-12-20T08:21:47;5.35;;;1.52;;
69161;SDS011;56269;51.738;21.652;2023-12-20T08:24:13;5.07;;;2.03;;
69161;SDS011;56269;51.738;21.652;2023-12-20T08:26:40;3.15;;;1.40;;
69161;SDS011;56269;51.738;21.652;2023-12-20T08:29:06;5.30;;;1.88;;
69161;SDS011;56269;51.738;21.652;2023-12-20T08:31:32;7.78;;;1.60;;
69161;SDS011;56269;51.738;21.652;2023-12-20T08:33:58;3.93;;;1.23;;
69161;SDS011;56269;51.738;21.652;2023-12-20T08:36:24;5.93;;;1.85;;
69161;SDS011;56269;51.738;21.652;2023-12-20T08:38:50;3.20;;;1.05;;
69161;SDS011;56269;51.738;21.652;2023-12-20T08:41:17;3.42;;;1.38;;
69161;SDS011;56269;51.738;21.652;2023-12-20T08:43:43;2.85;;;1.30;;
69161;SDS011;56269;51.738;21.652;2023-12-20T08:46:09;3.63;;;1.27;;
69161;SDS011;56269;51.738;21.652;2023-12-20T08:48:35;2.42;;;0.98;;
69161;SDS011;56269;51.738;21.652;2023-12-20T08:51:03;3.88;;;1.50;;
69161;SDS011;56269;51.738;21.652;2023-12-20T08:53:29;4.47;;;1.70;;
69161;SDS011;56269;51.738;21.652;2023-12-20T08:55:56;6.80;;;1.80;;
69161;SDS011;56269;51.738;21.652;2023-12-20T08:58:26;3.20;;;1.20;;
69161;SDS011;56269;51.738;21.652;2023-12-20T09:00:53;3.65;;;1.55;;
69161;SDS011;56269;51.738;21.652;2023-12-20T09:03:19;4.20;;;1.35;;
69161;SDS011;56269;51.738;21.652;2023-12-20T09:05:46;5.63;;;2.00;;
69161;SDS011;56269;51.738;21.652;2023-12-20T09:08:12;1.93;;;1.00;;
69161;SDS011;56269;51.738;21.652;2023-12-20T09:10:38;3.90;;;1.67;;
69161;SDS011;56269;51.738;21.652;2023-12-20T09:13:04;5.53;;;2.00;;
69161;SDS011;56269;51.738;21.652;2023-12-20T09:15:30;2.53;;;0.90;;
69161;SDS011;56269;51.738;21.652;2023-12-20T09:17:56;6.22;;;1.73;;
69161;SDS011;56269;51.738;21.652;2023-12-20T09:20:23;3.23;;;1.27;;
69161;SDS011;56269;51.738;21.652;2023-12-20T09:22:49;4.57;;;1.70;;
69161;SDS011;56269;51.738;21.652;2023-12-20T09:25:15;2.97;;;1.10;;
69161;SDS011;56269;51.738;21.652;2023-12-20T09:27:43;3.20;;;1.10;;
69161;SDS011;56269;51.738;21.652;2023-12-20T09:30:09;3.90;;;1.73;;
69161;SDS011;56269;51.738;21.652;2023-12-20T09:32:35;3.37;;;1.37;;
69161;SDS011;56269;51.738;21.652;2023-12-20T09:35:02;2.55;;;0.98;;
69161;SDS011;56269;51.738;21.652;2023-12-20T09:37:28;3.78;;;1.38;;
69161;SDS011;56269;51.738;21.652;2023-12-20T09:39:55;3.40;;;1.20;;
69161;SDS011;56269;51.738;21.652;2023-12-20T09:42:23;3.00;;;1.20;;
69161;SDS011;56269;51.738;21.652;2023-12-20T09:44:55;4.40;;;1.53;;
69161;SDS011;56269;51.738;21.652;2023-12-20T09:47:24;5.03;;;1.77;;
69161;SDS011;56269;51.738;21.652;2023-12-20T09:49:51;4.38;;;1.40;;
69161;SDS011;56269;51.738;21.652;2023-12-20T09:52:18;3.00;;;1.08;;
69161;SDS011;56269;51.738;21.652;2023-12-20T09:54:45;5.72;;;1.77;;
69161;SDS011;56269;51.738;21.652;2023-12-20T09:57:13;7.00;;;1.57;;
69161;SDS011;56269;51.738;21.652;2023-12-20T09:59:40;1.63;;;0.90;;
69161;SDS011;56269;51.738;21.652;2023-12-20T10:02:06;3.00;;;1.02;;
69161;SDS011;56269;51.738;21.652;2023-12-20T10:04:38;4.00;;;1.35;;
69161;SDS011;56269;51.738;21.652;2023-12-20T10:07:15;3.85;;;1.10;;
69161;SDS011;56269;51.738;21.652;2023-12-20T10:09:42;3.80;;;1.30;;
69161;SDS011;56269;51.738;21.652;2023-12-20T10:12:09;3.60;;;1.20;;
69161;SDS011;56269;51.738;21.652;2023-12-20T10:14:35;2.75;;;1.13;;
69161;SDS011;56269;51.738;21.652;2023-12-20T10:17:02;2.20;;;0.98;;
69161;SDS011;56269;51.738;21.652;2023-12-20T10:19:29;3.45;;;1.05;;
69161;SDS011;56269;51.738;21.652;2023-12-20T10:21:55;2.60;;;0.97;;
69161;SDS011;56269;51.738;21.652;2023-12-20T10:24:22;4.35;;;1.20;;
69161;SDS011;56269;51.738;21.652;2023-12-20T10:26:48;2.28;;;0.90;;
69161;SDS011;56269;51.738;21.652;2023-12-20T10:29:36;3.30;;;1.00;;
69161;SDS011;56269;51.738;21.652;2023-12-20T10:34:52;2.30;;;0.77;;
69161;SDS011;56269;51.738;21.652;2023-12-20T10:37:19;3.25;;;1.20;;
69161;SDS011;56269;51.738;21.652;2023-12-20T10:39:55;2.33;;;0.90;;
69161;SDS011;56269;51.738;21.652;2023-12-20T10:42:22;2.45;;;0.82;;
69161;SDS011;56269;51.738;21.652;2023-12-20T10:44:48;1.88;;;0.80;;
69161;SDS011;56269;51.738;21.652;2023-12-20T10:47:15;2.53;;;1.00;;
69161;SDS011;56269;51.738;21.652;2023-12-20T10:49:42;2.33;;;0.77;;
69161;SDS011;56269;51.738;21.652;2023-12-20T10:52:10;3.17;;;1.02;;
69161;SDS011;56269;51.738;21.652;2023-12-20T10:54:37;3.25;;;1.17;;
69161;SDS011;56269;51.738;21.652;2023-12-20T10:57:07;3.50;;;1.00;;
69161;SDS011;56269;51.738;21.652;2023-12-20T10:59:33;3.23;;;1.10;;
69161;SDS011;56269;51.738;21.652;2023-12-20T11:02:03;3.25;;;1.10;;
69161;SDS011;56269;51.738;21.652;2023-12-20T11:04:42;3.00;;;1.08;;
69161;SDS011;56269;51.738;21.652;2023-12-20T11:07:33;3.47;;;0.93;;
69161;SDS011;56269;51.738;21.652;2023-12-20T11:10:14;3.17;;;1.17;;
69161;SDS011;56269;51.738;21.652;2023-12-20T11:12:52;4.17;;;1.00;;
69161;SDS011;56269;51.738;21.652;2023-12-20T11:15:23;3.35;;;1.40;;
69161;SDS011;56269;51.738;21.652;2023-12-20T11:17:56;3.40;;;1.15;;
69161;SDS011;56269;51.738;21.652;2023-12-20T11:20:24;6.72;;;2.50;;
69161;SDS011;56269;51.738;21.652;2023-12-20T11:23:04;2.03;;;0.90;;
69161;SDS011;56269;51.738;21.652;2023-12-20T11:28:24;3.60;;;1.30;;
69161;SDS011;56269;51.738;21.652;2023-12-20T11:30:52;1.75;;;0.70;;
69161;SDS011;56269;51.738;21.652;2023-12-20T11:33:23;2.42;;;0.98;;
69161;SDS011;56269;51.738;21.652;2023-12-20T11:35:50;1.33;;;0.60;;
69161;SDS011;56269;51.738;21.652;2023-12-20T11:38:19;3.10;;;1.03;;
69161;SDS011;56269;51.738;21.652;2023-12-20T11:40:48;3.13;;;1.00;;
69161;SDS011;56269;51.738;21.652;2023-12-20T11:46:05;2.20;;;0.80;;
69161;SDS011;56269;51.738;21.652;2023-12-20T11:48:33;1.80;;;0.90;;
69161;SDS011;56269;51.738;21.652;2023-12-20T11:51:01;2.27;;;0.90;;
69161;SDS011;56269;51.738;21.652;2023-12-20T11:53:29;1.70;;;0.70;;
69161;SDS011;56269;51.738;21.652;2023-12-20T11:55:57;1.73;;;0.70;;
69161;SDS011;56269;51.738;21.652;2023-12-20T11:58:23;2.67;;;1.00;;
69161;SDS011;56269;51.738;21.652;2023-12-20T12:00:51;3.20;;;1.10;;
69161;SDS011;56269;51.738;21.652;2023-12-20T12:03:17;1.80;;;0.90;;
69161;SDS011;56269;51.738;21.652;2023-12-20T12:05:45;1.70;;;0.70;;
69161;SDS011;56269;51.738;21.652;2023-12-20T12:08:13;2.85;;;0.90;;
69161;SDS011;56269;51.738;21.652;2023-12-20T12:10:39;2.10;;;0.90;;
69161;SDS011;56269;51.738;21.652;2023-12-20T12:13:05;2.28;;;1.15;;
69161;SDS011;56269;51.738;21.652;2023-12-20T12:15:32;2.50;;;1.00;;
69161;SDS011;56269;51.738;21.652;2023-12-20T12:17:58;2.05;;;1.05;;
69161;SDS011;56269;51.738;21.652;2023-12-20T12:20:25;1.63;;;0.73;;
69161;SDS011;56269;51.738;21.652;2023-12-20T12:22:58;3.33;;;0.95;;
69161;SDS011;56269;51.738;21.652;2023-12-20T12:25:25;2.15;;;1.00;;
69161;SDS011;56269;51.738;21.652;2023-12-20T12:27:52;1.50;;;0.80;;
69161;SDS011;56269;51.738;21.652;2023-12-20T12:30:19;2.47;;;0.95;;
69161;SDS011;56269;51.738;21.652;2023-12-20T12:32:45;2.17;;;0.70;;
69161;SDS011;56269;51.738;21.652;2023-12-20T12:35:11;3.25;;;0.98;;
69161;SDS011;56269;51.738;21.652;2023-12-20T12:37:38;4.87;;;1.10;;
69161;SDS011;56269;51.738;21.652;2023-12-20T12:40:14;1.17;;;0.73;;
69161;SDS011;56269;51.738;21.652;2023-12-20T12:42:42;2.80;;;1.15;;
69161;SDS011;56269;51.738;21.652;2023-12-20T12:45:10;2.85;;;1.02;;
69161;SDS011;56269;51.738;21.652;2023-12-20T12:47:47;3.78;;;1.00;;
69161;SDS011;56269;51.738;21.652;2023-12-20T12:50:13;2.10;;;0.70;;
69161;SDS011;56269;51.738;21.652;2023-12-20T12:52:39;1.33;;;0.77;;
69161;SDS011;56269;51.738;21.652;2023-12-20T12:55:06;3.00;;;1.20;;
69161;SDS011;56269;51.738;21.652;2023-12-20T12:57:32;1.60;;;0.80;;
69161;SDS011;56269;51.738;21.652;2023-12-20T12:59:59;2.83;;;1.00;;
69161;SDS011;56269;51.738;21.652;2023-12-20T13:02:25;1.02;;;0.60;;
69161;SDS011;56269;51.738;21.652;2023-12-20T13:04:51;2.43;;;0.60;;
69161;SDS011;56269;51.738;21.652;2023-12-20T13:07:17;1.98;;;0.88;;
69161;SDS011;56269;51.738;21.652;2023-12-20T13:09:44;1.45;;;0.70;;
69161;SDS011;56269;51.738;21.652;2023-12-20T13:12:10;1.52;;;0.60;;
69161;SDS011;56269;51.738;21.652;2023-12-20T13:14:36;2.03;;;0.70;;
69161;SDS011;56269;51.738;21.652;2023-12-20T13:17:03;3.60;;;1.30;;
69161;SDS011;56269;51.738;21.652;2023-12-20T13:19:29;3.33;;;1.08;;
69161;SDS011;56269;51.738;21.652;2023-12-20T13:21:56;2.42;;;0.90;;
69161;SDS011;56269;51.738;21.652;2023-12-20T13:24:23;3.88;;;1.45;;
69161;SDS011;56269;51.738;21.652;2023-12-20T13:26:49;2.57;;;1.03;;
69161;SDS011;56269;51.738;21.652;2023-12-20T13:29:17;1.98;;;1.05;;
69161;SDS011;56269;51.738;21.652;2023-12-20T13:31:43;2.95;;;1.17;;
69161;SDS011;56269;51.738;21.652;2023-12-20T13:34:09;1.48;;;0.70;;
69161;SDS011;56269;51.738;21.652;2023-12-20T13:36:35;2.40;;;0.75;;
69161;SDS011;56269;51.738;21.652;2023-12-20T13:39:03;3.10;;;1.77;;
69161;SDS011;56269;51.738;21.652;2023-12-20T13:41:30;3.20;;;1.20;;
69161;SDS011;56269;51.738;21.652;2023-12-20T13:43:57;1.35;;;0.73;;
69161;SDS011;56269;51.738;21.652;2023-12-20T13:46:23;3.05;;;0.73;;
69161;SDS011;56269;51.738;21.652;2023-12-20T13:48:49;1.33;;;0.68;;
69161;SDS011;56269;51.738;21.652;2023-12-20T13:51:15;1.53;;;0.67;;
69161;SDS011;56269;51.738;21.652;2023-12-20T13:53:42;1.33;;;0.60;;
69161;SDS011;56269;51.738;21.652;2023-12-20T13:56:08;3.47;;;1.17;;
69161;SDS011;56269;51.738;21.652;2023-12-20T13:58:34;1.17;;;0.60;;
69161;SDS011;56269;51.738;21.652;2023-12-20T14:01:00;1.70;;;0.60;;
69161;SDS011;56269;51.738;21.652;2023-12-20T14:03:26;1.52;;;0.60;;
69161;SDS011;56269;51.738;21.652;2023-12-20T14:05:52;2.40;;;1.00;;
69161;SDS011;56269;51.738;21.652;2023-12-20T14:08:19;2.50;;;0.90;;
69161;SDS011;56269;51.738;21.652;2023-12-20T14:10:45;1.63;;;0.80;;
69161;SDS011;56269;51.738;21.652;2023-12-20T14:13:12;1.80;;;0.90;;
69161;SDS011;56269;51.738;21.652;2023-12-20T14:15:37;2.10;;;0.77;;
69161;SDS011;56269;51.738;21.652;2023-12-20T14:18:04;2.53;;;0.90;;
69161;SDS011;56269;51.738;21.652;2023-12-20T14:20:34;3.15;;;0.55;;
69161;SDS011;56269;51.738;21.652;2023-12-20T14:23:03;2.35;;;0.98;;
69161;SDS011;56269;51.738;21.652;2023-12-20T14:25:30;3.77;;;1.10;;
69161;SDS011;56269;51.738;21.652;2023-12-20T14:27:57;3.38;;;1.10;;
69161;SDS011;56269;51.738;21.652;2023-12-20T14:30:23;5.80;;;1.58;;
69161;SDS011;56269;51.738;21.652;2023-12-20T14:32:50;5.25;;;1.45;;
69161;SDS011;56269;51.738;21.652;2023-12-20T14:35:16;4.72;;;1.48;;
69161;SDS011;56269;51.738;21.652;2023-12-20T14:37:42;2.87;;;0.93;;
69161;SDS011;56269;51.738;21.652;2023-12-20T14:40:09;3.38;;;1.55;;